sensor_id;sensor_type;location;lat;lon;timestamp;P1;durP1;ratioP1;P2;durP2;ratioP2
6598;SDS011;3335;43.198;27.918;2022-09-02T00:01:07;4.90;;;3.67;;
6598;SDS011;3335;43.198;27.918;2022-09-02T00:03:37;6.63;;;3.63;;
6598;SDS011;3335;43.198;27.918;2022-09-02T00:06:04;6.30;;;4.40;;
6598;SDS011;3335;43.198;27.918;2022-09-02T00:08:31;5.47;;;3.97;;
6598;SDS011;3335;43.198;27.918;2022-09-02T00:10:58;7.17;;;3.90;;
6598;SDS011;3335;43.198;27.918;2022-09-02T00:13:28;9.33;;;4.23;;
6598;SDS011;3335;43.198;27.918;2022-09-02T00:15:55;8.47;;;4.17;;
6598;SDS011;3335;43.198;27.918;2022-09-02T00:18:22;8.40;;;4.30;;
6598;SDS011;3335;43.198;27.918;2022-09-02T00:20:50;7.20;;;4.27;;
6598;SDS011;3335;43.198;27.918;2022-09-02T00:23:18;5.97;;;3.77;;
6598;SDS011;3335;43.198;27.918;2022-09-02T00:25:45;6.20;;;3.77;;
6598;SDS011;3335;43.198;27.918;2022-09-02T00:28:13;5.13;;;3.80;;
6598;SDS011;3335;43.198;27.918;2022-09-02T00:30:43;6.53;;;4.23;;
6598;SDS011;3335;43.198;27.918;2022-09-02T00:33:11;8.53;;;3.47;;
6598;SDS011;3335;43.198;27.918;2022-09-02T00:35:38;6.23;;;3.87;;
6598;SDS011;3335;43.198;27.918;2022-09-02T00:38:06;6.27;;;3.97;;
6598;SDS011;3335;43.198;27.918;2022-09-02T00:40:34;5.00;;;4.00;;
6598;SDS011;3335;43.198;27.918;2022-09-02T00:43:03;7.73;;;4.40;;
6598;SDS011;3335;43.198;27.918;2022-09-02T00:45:32;7.33;;;4.10;;
6598;SDS011;3335;43.198;27.918;2022-09-02T00:48:01;5.53;;;3.43;;
6598;SDS011;3335;43.198;27.918;2022-09-02T00:50:29;5.77;;;3.90;;
6598;SDS011;3335;43.198;27.918;2022-09-02T00:53:04;6.83;;;3.90;;
6598;SDS011;3335;43.198;27.918;2022-09-02T00:55:34;6.00;;;4.00;;
6598;SDS011;3335;43.198;27.918;2022-09-02T00:58:06;7.17;;;3.63;;
6598;SDS011;3335;43.198;27.918;2022-09-02T01:00:39;12.07;;;4.03;;
6598;SDS011;3335;43.198;27.918;2022-09-02T01:03:10;7.57;;;3.93;;
6598;SDS011;3335;43.198;27.918;2022-09-02T01:05:41;6.47;;;4.10;;
6598;SDS011;3335;43.198;27.918;2022-09-02T01:08:10;7.83;;;3.90;;
6598;SDS011;3335;43.198;27.918;2022-09-02T01:10:39;7.87;;;3.67;;
6598;SDS011;3335;43.198;27.918;2022-09-02T01:13:08;7.63;;;3.53;;
6598;SDS011;3335;43.198;27.918;2022-09-02T01:15:38;5.93;;;3.97;;
6598;SDS011;3335;43.198;27.918;2022-09-02T01:18:07;4.63;;;3.40;;
6598;SDS011;3335;43.198;27.918;2022-09-02T01:20:39;5.23;;;3.70;;
6598;SDS011;3335;43.198;27.918;2022-09-02T01:23:08;5.53;;;3.80;;
6598;SDS011;3335;43.198;27.918;2022-09-02T01:25:35;9.57;;;3.57;;
6598;SDS011;3335;43.198;27.918;2022-09-02T01:28:03;4.57;;;3.57;;
6598;SDS011;3335;43.198;27.918;2022-09-02T01:30:33;5.83;;;3.50;;
6598;SDS011;3335;43.198;27.918;2022-09-02T01:33:02;6.10;;;3.63;;
6598;SDS011;3335;43.198;27.918;2022-09-02T01:35:29;5.50;;;3.00;;
6598;SDS011;3335;43.198;27.918;2022-09-02T01:37:56;7.30;;;3.33;;
6598;SDS011;3335;43.198;27.918;2022-09-02T01:40:28;6.07;;;3.30;;
6598;SDS011;3335;43.198;27.918;2022-09-02T01:42:57;7.37;;;3.87;;
6598;SDS011;3335;43.198;27.918;2022-09-02T01:45:27;4.43;;;3.10;;
6598;SDS011;3335;43.198;27.918;2022-09-02T01:47:54;4.60;;;3.20;;
6598;SDS011;3335;43.198;27.918;2022-09-02T01:50:22;4.90;;;3.07;;
6598;SDS011;3335;43.198;27.918;2022-09-02T01:52:49;3.77;;;3.10;;
6598;SDS011;3335;43.198;27.918;2022-09-02T01:55:16;3.87;;;3.43;;
6598;SDS011;3335;43.198;27.918;2022-09-02T01:57:44;8.57;;;3.53;;
6598;SDS011;3335;43.198;27.918;2022-09-02T02:00:12;3.83;;;3.43;;
6598;SDS011;3335;43.198;27.918;2022-09-02T02:02:40;5.93;;;4.20;;
6598;SDS011;3335;43.198;27.918;2022-09-02T02:05:07;8.57;;;3.40;;
6598;SDS011;3335;43.198;27.918;2022-09-02T02:07:34;4.53;;;2.80;;
6598;SDS011;3335;43.198;27.918;2022-09-02T02:10:02;6.97;;;3.03;;
6598;SDS011;3335;43.198;27.918;2022-09-02T02:12:32;4.57;;;2.97;;
6598;SDS011;3335;43.198;27.918;2022-09-02T02:15:01;4.63;;;3.13;;
6598;SDS011;3335;43.198;27.918;2022-09-02T02:17:28;4.07;;;3.23;;
6598;SDS011;3335;43.198;27.918;2022-09-02T02:19:55;5.27;;;3.00;;
6598;SDS011;3335;43.198;27.918;2022-09-02T02:22:22;6.17;;;3.13;;
6598;SDS011;3335;43.198;27.918;2022-09-02T02:24:51;6.80;;;3.47;;
6598;SDS011;3335;43.198;27.918;2022-09-02T02:27:18;5.37;;;3.00;;
6598;SDS011;3335;43.198;27.918;2022-09-02T02:29:45;3.53;;;2.53;;
6598;SDS011;3335;43.198;27.918;2022-09-02T02:32:14;4.43;;;3.00;;
6598;SDS011;3335;43.198;27.918;2022-09-02T02:34:42;5.10;;;3.20;;
6598;SDS011;3335;43.198;27.918;2022-09-02T02:37:09;6.37;;;3.60;;
6598;SDS011;3335;43.198;27.918;2022-09-02T02:39:37;7.23;;;3.47;;
6598;SDS011;3335;43.198;27.918;2022-09-02T02:42:05;5.73;;;3.00;;
6598;SDS011;3335;43.198;27.918;2022-09-02T02:44:32;10.03;;;3.70;;
6598;SDS011;3335;43.198;27.918;2022-09-02T02:46:59;4.63;;;2.47;;
6598;SDS011;3335;43.198;27.918;2022-09-02T02:49:28;7.73;;;3.20;;
6598;SDS011;3335;43.198;27.918;2022-09-02T02:51:55;4.87;;;3.00;;
6598;SDS011;3335;43.198;27.918;2022-09-02T02:54:22;4.50;;;2.60;;
6598;SDS011;3335;43.198;27.918;2022-09-02T02:56:49;4.60;;;3.30;;
6598;SDS011;3335;43.198;27.918;2022-09-02T02:59:15;7.90;;;3.13;;
6598;SDS011;3335;43.198;27.918;2022-09-02T03:01:42;7.67;;;3.10;;
6598;SDS011;3335;43.198;27.918;2022-09-02T03:04:09;6.17;;;2.90;;
6598;SDS011;3335;43.198;27.918;2022-09-02T03:06:37;4.00;;;2.77;;
6598;SDS011;3335;43.198;27.918;2022-09-02T03:09:04;7.17;;;3.30;;
6598;SDS011;3335;43.198;27.918;2022-09-02T03:11:31;4.47;;;2.83;;
6598;SDS011;3335;43.198;27.918;2022-09-02T03:13:58;8.10;;;3.20;;
6598;SDS011;3335;43.198;27.918;2022-09-02T03:16:25;3.47;;;2.70;;
6598;SDS011;3335;43.198;27.918;2022-09-02T03:18:52;4.30;;;3.10;;
6598;SDS011;3335;43.198;27.918;2022-09-02T03:21:19;6.70;;;2.93;;
6598;SDS011;3335;43.198;27.918;2022-09-02T03:23:47;6.53;;;3.33;;
6598;SDS011;3335;43.198;27.918;2022-09-02T03:26:15;4.60;;;3.43;;
6598;SDS011;3335;43.198;27.918;2022-09-02T03:28:43;4.97;;;2.87;;
6598;SDS011;3335;43.198;27.918;2022-09-02T03:31:12;4.23;;;2.97;;
6598;SDS011;3335;43.198;27.918;2022-09-02T03:33:42;7.93;;;3.03;;
6598;SDS011;3335;43.198;27.918;2022-09-02T03:36:17;10.07;;;3.00;;
6598;SDS011;3335;43.198;27.918;2022-09-02T03:38:45;5.20;;;2.83;;
6598;SDS011;3335;43.198;27.918;2022-09-02T03:41:13;5.87;;;2.80;;
6598;SDS011;3335;43.198;27.918;2022-09-02T03:43:40;6.57;;;3.20;;
6598;SDS011;3335;43.198;27.918;2022-09-02T03:46:07;5.23;;;3.13;;
6598;SDS011;3335;43.198;27.918;2022-09-02T03:48:34;7.03;;;2.90;;
6598;SDS011;3335;43.198;27.918;2022-09-02T03:51:01;3.97;;;3.00;;
6598;SDS011;3335;43.198;27.918;2022-09-02T03:53:29;7.90;;;3.50;;
6598;SDS011;3335;43.198;27.918;2022-09-02T03:55:57;3.93;;;2.73;;
6598;SDS011;3335;43.198;27.918;2022-09-02T03:58:25;17.23;;;4.70;;
6598;SDS011;3335;43.198;27.918;2022-09-02T04:00:52;5.67;;;3.13;;
6598;SDS011;3335;43.198;27.918;2022-09-02T04:03:20;5.33;;;3.00;;
6598;SDS011;3335;43.198;27.918;2022-09-02T04:05:47;7.37;;;3.50;;
6598;SDS011;3335;43.198;27.918;2022-09-02T04:08:15;3.53;;;3.00;;
6598;SDS011;3335;43.198;27.918;2022-09-02T04:10:42;7.77;;;3.40;;
6598;SDS011;3335;43.198;27.918;2022-09-02T04:13:09;6.93;;;3.30;;
6598;SDS011;3335;43.198;27.918;2022-09-02T04:15:40;5.80;;;2.97;;
6598;SDS011;3335;43.198;27.918;2022-09-02T04:18:12;5.73;;;3.03;;
6598;SDS011;3335;43.198;27.918;2022-09-02T04:20:41;10.13;;;3.20;;
6598;SDS011;3335;43.198;27.918;2022-09-02T04:23:10;7.67;;;3.07;;
6598;SDS011;3335;43.198;27.918;2022-09-02T04:25:39;4.90;;;3.20;;
6598;SDS011;3335;43.198;27.918;2022-09-02T04:28:10;8.43;;;3.30;;
6598;SDS011;3335;43.198;27.918;2022-09-02T04:30:40;5.73;;;3.10;;
6598;SDS011;3335;43.198;27.918;2022-09-02T04:33:10;6.30;;;3.03;;
6598;SDS011;3335;43.198;27.918;2022-09-02T04:35:40;7.07;;;3.40;;
6598;SDS011;3335;43.198;27.918;2022-09-02T04:38:10;4.23;;;2.83;;
6598;SDS011;3335;43.198;27.918;2022-09-02T04:40:39;4.93;;;3.33;;
6598;SDS011;3335;43.198;27.918;2022-09-02T04:43:10;5.20;;;3.20;;
6598;SDS011;3335;43.198;27.918;2022-09-02T04:45:42;6.70;;;3.10;;
6598;SDS011;3335;43.198;27.918;2022-09-02T04:48:14;3.40;;;2.60;;
6598;SDS011;3335;43.198;27.918;2022-09-02T04:50:47;2.80;;;2.50;;
6598;SDS011;3335;43.198;27.918;2022-09-02T04:53:16;7.27;;;3.07;;
6598;SDS011;3335;43.198;27.918;2022-09-02T04:55:45;10.00;;;3.50;;
6598;SDS011;3335;43.198;27.918;2022-09-02T04:58:15;3.43;;;3.00;;
6598;SDS011;3335;43.198;27.918;2022-09-02T05:00:45;3.53;;;2.97;;
6598;SDS011;3335;43.198;27.918;2022-09-02T05:03:14;5.70;;;2.93;;
6598;SDS011;3335;43.198;27.918;2022-09-02T05:05:40;6.27;;;2.90;;
6598;SDS011;3335;43.198;27.918;2022-09-02T05:08:07;6.33;;;3.33;;
6598;SDS011;3335;43.198;27.918;2022-09-02T05:10:38;4.67;;;3.33;;
6598;SDS011;3335;43.198;27.918;2022-09-02T05:13:05;4.53;;;3.13;;
6598;SDS011;3335;43.198;27.918;2022-09-02T05:15:32;4.70;;;3.30;;
6598;SDS011;3335;43.198;27.918;2022-09-02T05:18:05;6.10;;;3.07;;
6598;SDS011;3335;43.198;27.918;2022-09-02T05:20:32;5.77;;;2.80;;
6598;SDS011;3335;43.198;27.918;2022-09-02T05:22:59;9.00;;;3.90;;
6598;SDS011;3335;43.198;27.918;2022-09-02T05:25:26;7.50;;;3.47;;
6598;SDS011;3335;43.198;27.918;2022-09-02T05:27:53;5.73;;;2.97;;
6598;SDS011;3335;43.198;27.918;2022-09-02T05:30:20;5.33;;;3.07;;
6598;SDS011;3335;43.198;27.918;2022-09-02T05:32:47;5.53;;;3.47;;
6598;SDS011;3335;43.198;27.918;2022-09-02T05:35:15;5.43;;;2.87;;
6598;SDS011;3335;43.198;27.918;2022-09-02T05:37:42;11.57;;;3.67;;
6598;SDS011;3335;43.198;27.918;2022-09-02T05:40:09;6.53;;;3.17;;
6598;SDS011;3335;43.198;27.918;2022-09-02T05:42:37;7.27;;;3.27;;
6598;SDS011;3335;43.198;27.918;2022-09-02T05:45:04;6.30;;;2.93;;
6598;SDS011;3335;43.198;27.918;2022-09-02T05:47:33;6.30;;;3.17;;
6598;SDS011;3335;43.198;27.918;2022-09-02T05:50:00;6.57;;;3.20;;
6598;SDS011;3335;43.198;27.918;2022-09-02T05:52:28;5.27;;;2.80;;
6598;SDS011;3335;43.198;27.918;2022-09-02T05:54:56;10.53;;;3.17;;
6598;SDS011;3335;43.198;27.918;2022-09-02T05:57:24;10.17;;;3.50;;
6598;SDS011;3335;43.198;27.918;2022-09-02T05:59:51;7.30;;;3.33;;
6598;SDS011;3335;43.198;27.918;2022-09-02T06:02:21;9.63;;;3.13;;
6598;SDS011;3335;43.198;27.918;2022-09-02T06:04:50;7.63;;;3.50;;
6598;SDS011;3335;43.198;27.918;2022-09-02T06:07:18;11.10;;;4.10;;
6598;SDS011;3335;43.198;27.918;2022-09-02T06:09:48;5.33;;;3.33;;
6598;SDS011;3335;43.198;27.918;2022-09-02T06:12:16;7.83;;;3.13;;
6598;SDS011;3335;43.198;27.918;2022-09-02T06:14:45;4.23;;;3.43;;
6598;SDS011;3335;43.198;27.918;2022-09-02T06:17:12;5.33;;;3.20;;
6598;SDS011;3335;43.198;27.918;2022-09-02T06:19:39;7.37;;;3.63;;
6598;SDS011;3335;43.198;27.918;2022-09-02T06:22:06;6.20;;;3.40;;
6598;SDS011;3335;43.198;27.918;2022-09-02T06:24:33;5.50;;;3.33;;
6598;SDS011;3335;43.198;27.918;2022-09-02T06:27:01;7.10;;;4.00;;
6598;SDS011;3335;43.198;27.918;2022-09-02T06:29:28;6.13;;;2.97;;
6598;SDS011;3335;43.198;27.918;2022-09-02T06:31:55;5.33;;;3.30;;
6598;SDS011;3335;43.198;27.918;2022-09-02T06:34:23;8.83;;;3.77;;
6598;SDS011;3335;43.198;27.918;2022-09-02T06:36:51;6.43;;;3.47;;
6598;SDS011;3335;43.198;27.918;2022-09-02T06:39:19;6.10;;;3.63;;
6598;SDS011;3335;43.198;27.918;2022-09-02T06:41:47;8.93;;;3.83;;
6598;SDS011;3335;43.198;27.918;2022-09-02T06:44:17;10.97;;;3.87;;
6598;SDS011;3335;43.198;27.918;2022-09-02T06:46:47;5.20;;;3.67;;
6598;SDS011;3335;43.198;27.918;2022-09-02T06:49:18;5.60;;;3.47;;
6598;SDS011;3335;43.198;27.918;2022-09-02T06:51:45;8.33;;;3.77;;
6598;SDS011;3335;43.198;27.918;2022-09-02T06:54:14;5.50;;;3.50;;
6598;SDS011;3335;43.198;27.918;2022-09-02T06:56:43;8.10;;;3.93;;
6598;SDS011;3335;43.198;27.918;2022-09-02T06:59:11;7.17;;;4.07;;
6598;SDS011;3335;43.198;27.918;2022-09-02T07:01:39;7.83;;;4.27;;
6598;SDS011;3335;43.198;27.918;2022-09-02T07:04:06;6.90;;;4.23;;
6598;SDS011;3335;43.198;27.918;2022-09-02T07:06:52;11.83;;;5.00;;
6598;SDS011;3335;43.198;27.918;2022-09-02T07:09:21;11.27;;;4.37;;
6598;SDS011;3335;43.198;27.918;2022-09-02T07:11:55;5.30;;;3.80;;
6598;SDS011;3335;43.198;27.918;2022-09-02T07:14:23;10.23;;;4.40;;
6598;SDS011;3335;43.198;27.918;2022-09-02T07:16:53;8.87;;;4.17;;
6598;SDS011;3335;43.198;27.918;2022-09-02T07:19:22;9.93;;;4.37;;
6598;SDS011;3335;43.198;27.918;2022-09-02T07:21:50;10.90;;;4.37;;
6598;SDS011;3335;43.198;27.918;2022-09-02T07:24:18;10.13;;;4.57;;
6598;SDS011;3335;43.198;27.918;2022-09-02T07:26:45;8.70;;;4.57;;
6598;SDS011;3335;43.198;27.918;2022-09-02T07:29:12;11.30;;;4.90;;
6598;SDS011;3335;43.198;27.918;2022-09-02T07:31:42;6.13;;;3.87;;
6598;SDS011;3335;43.198;27.918;2022-09-02T07:34:13;9.50;;;4.23;;
6598;SDS011;3335;43.198;27.918;2022-09-02T07:36:40;9.23;;;4.00;;
6598;SDS011;3335;43.198;27.918;2022-09-02T07:39:10;8.23;;;3.77;;
6598;SDS011;3335;43.198;27.918;2022-09-02T07:41:38;10.27;;;4.20;;
6598;SDS011;3335;43.198;27.918;2022-09-02T07:44:06;7.67;;;4.07;;
6598;SDS011;3335;43.198;27.918;2022-09-02T07:46:33;8.87;;;4.13;;
6598;SDS011;3335;43.198;27.918;2022-09-02T07:49:01;8.73;;;4.83;;
6598;SDS011;3335;43.198;27.918;2022-09-02T07:51:33;16.50;;;5.17;;
6598;SDS011;3335;43.198;27.918;2022-09-02T07:54:02;7.27;;;3.70;;
6598;SDS011;3335;43.198;27.918;2022-09-02T07:56:30;6.83;;;3.40;;
6598;SDS011;3335;43.198;27.918;2022-09-02T07:58:57;6.47;;;3.73;;
6598;SDS011;3335;43.198;27.918;2022-09-02T08:01:25;5.77;;;3.70;;
6598;SDS011;3335;43.198;27.918;2022-09-02T08:03:52;13.80;;;4.00;;
6598;SDS011;3335;43.198;27.918;2022-09-02T08:06:19;9.43;;;3.73;;
6598;SDS011;3335;43.198;27.918;2022-09-02T08:08:52;9.30;;;4.07;;
6598;SDS011;3335;43.198;27.918;2022-09-02T08:11:20;8.23;;;3.73;;
6598;SDS011;3335;43.198;27.918;2022-09-02T08:13:47;7.03;;;3.70;;
6598;SDS011;3335;43.198;27.918;2022-09-02T08:16:15;7.80;;;3.60;;
6598;SDS011;3335;43.198;27.918;2022-09-02T08:18:42;8.07;;;4.03;;
6598;SDS011;3335;43.198;27.918;2022-09-02T08:21:09;8.00;;;4.40;;
6598;SDS011;3335;43.198;27.918;2022-09-02T08:23:36;3.67;;;3.07;;
6598;SDS011;3335;43.198;27.918;2022-09-02T08:26:04;8.20;;;3.70;;
6598;SDS011;3335;43.198;27.918;2022-09-02T08:28:32;5.87;;;3.50;;
6598;SDS011;3335;43.198;27.918;2022-09-02T08:31:02;12.43;;;3.87;;
6598;SDS011;3335;43.198;27.918;2022-09-02T08:33:30;9.37;;;4.07;;
6598;SDS011;3335;43.198;27.918;2022-09-02T08:36:00;7.60;;;4.03;;
6598;SDS011;3335;43.198;27.918;2022-09-02T08:38:28;9.83;;;3.97;;
6598;SDS011;3335;43.198;27.918;2022-09-02T08:40:55;9.40;;;4.67;;
6598;SDS011;3335;43.198;27.918;2022-09-02T08:43:27;9.40;;;4.00;;
6598;SDS011;3335;43.198;27.918;2022-09-02T08:46:02;10.23;;;4.43;;
6598;SDS011;3335;43.198;27.918;2022-09-02T08:48:32;6.33;;;4.43;;
6598;SDS011;3335;43.198;27.918;2022-09-02T08:51:04;7.27;;;4.13;;
6598;SDS011;3335;43.198;27.918;2022-09-02T08:53:35;12.10;;;4.90;;
6598;SDS011;3335;43.198;27.918;2022-09-02T08:56:07;6.97;;;3.87;;
6598;SDS011;3335;43.198;27.918;2022-09-02T08:58:40;8.53;;;4.03;;
6598;SDS011;3335;43.198;27.918;2022-09-02T09:01:12;6.13;;;3.83;;
6598;SDS011;3335;43.198;27.918;2022-09-02T09:03:55;10.33;;;4.50;;
6598;SDS011;3335;43.198;27.918;2022-09-02T09:06:37;6.63;;;4.47;;
6598;SDS011;3335;43.198;27.918;2022-09-02T09:09:12;10.00;;;4.73;;
6598;SDS011;3335;43.198;27.918;2022-09-02T09:11:50;8.23;;;4.40;;
6598;SDS011;3335;43.198;27.918;2022-09-02T09:14:28;9.57;;;4.40;;
6598;SDS011;3335;43.198;27.918;2022-09-02T09:16:59;8.37;;;4.27;;
6598;SDS011;3335;43.198;27.918;2022-09-02T09:19:35;6.77;;;4.07;;
6598;SDS011;3335;43.198;27.918;2022-09-02T09:22:09;18.30;;;4.20;;
6598;SDS011;3335;43.198;27.918;2022-09-02T09:24:40;9.67;;;5.07;;
6598;SDS011;3335;43.198;27.918;2022-09-02T09:27:09;8.13;;;4.30;;
6598;SDS011;3335;43.198;27.918;2022-09-02T09:29:41;8.07;;;4.20;;
6598;SDS011;3335;43.198;27.918;2022-09-02T09:32:10;8.60;;;4.33;;
6598;SDS011;3335;43.198;27.918;2022-09-02T09:34:56;7.97;;;4.50;;
6598;SDS011;3335;43.198;27.918;2022-09-02T09:37:27;9.97;;;4.47;;
6598;SDS011;3335;43.198;27.918;2022-09-02T09:39:56;7.53;;;4.10;;
6598;SDS011;3335;43.198;27.918;2022-09-02T09:42:30;8.15;;;4.35;;
6598;SDS011;3335;43.198;27.918;2022-09-02T09:45:14;10.67;;;4.47;;
6598;SDS011;3335;43.198;27.918;2022-09-02T09:47:54;8.38;;;4.45;;
6598;SDS011;3335;43.198;27.918;2022-09-02T09:50:37;7.38;;;3.95;;
6598;SDS011;3335;43.198;27.918;2022-09-02T09:53:13;8.45;;;4.55;;
6598;SDS011;3335;43.198;27.918;2022-09-02T09:55:48;7.72;;;4.00;;
6598;SDS011;3335;43.198;27.918;2022-09-02T09:58:17;10.65;;;4.32;;
6598;SDS011;3335;43.198;27.918;2022-09-02T10:00:46;7.63;;;3.85;;
6598;SDS011;3335;43.198;27.918;2022-09-02T10:03:19;9.02;;;4.25;;
6598;SDS011;3335;43.198;27.918;2022-09-02T10:05:48;6.88;;;3.78;;
6598;SDS011;3335;43.198;27.918;2022-09-02T10:08:20;8.95;;;4.65;;
6598;SDS011;3335;43.198;27.918;2022-09-02T10:10:54;10.83;;;4.00;;
6598;SDS011;3335;43.198;27.918;2022-09-02T10:13:23;10.18;;;4.18;;
6598;SDS011;3335;43.198;27.918;2022-09-02T10:15:58;10.45;;;3.90;;
6598;SDS011;3335;43.198;27.918;2022-09-02T10:18:37;10.68;;;4.50;;
6598;SDS011;3335;43.198;27.918;2022-09-02T10:21:10;7.35;;;3.38;;
6598;SDS011;3335;43.198;27.918;2022-09-02T10:23:44;9.60;;;3.75;;
6598;SDS011;3335;43.198;27.918;2022-09-02T10:26:21;8.13;;;4.38;;
6598;SDS011;3335;43.198;27.918;2022-09-02T10:32:03;7.47;;;3.80;;
6598;SDS011;3335;43.198;27.918;2022-09-02T10:34:45;6.50;;;3.60;;
6598;SDS011;3335;43.198;27.918;2022-09-02T10:37:19;7.78;;;3.88;;
6598;SDS011;3335;43.198;27.918;2022-09-02T10:42:41;12.10;;;4.80;;
6598;SDS011;3335;43.198;27.918;2022-09-02T10:45:14;7.47;;;4.07;;
6598;SDS011;3335;43.198;27.918;2022-09-02T10:47:51;7.75;;;4.43;;
6598;SDS011;3335;43.198;27.918;2022-09-02T10:50:32;7.18;;;3.97;;
6598;SDS011;3335;43.198;27.918;2022-09-02T10:53:08;11.65;;;4.32;;
6598;SDS011;3335;43.198;27.918;2022-09-02T10:55:47;9.00;;;4.00;;
6598;SDS011;3335;43.198;27.918;2022-09-02T10:58:23;7.87;;;4.07;;
6598;SDS011;3335;43.198;27.918;2022-09-02T11:01:02;6.28;;;4.30;;
6598;SDS011;3335;43.198;27.918;2022-09-02T11:03:34;7.53;;;4.40;;
6598;SDS011;3335;43.198;27.918;2022-09-02T11:06:08;11.52;;;4.78;;
6598;SDS011;3335;43.198;27.918;2022-09-02T11:08:40;7.75;;;4.07;;
6598;SDS011;3335;43.198;27.918;2022-09-02T11:11:12;15.68;;;4.55;;
6598;SDS011;3335;43.198;27.918;2022-09-02T11:13:51;8.07;;;4.20;;
6598;SDS011;3335;43.198;27.918;2022-09-02T11:16:23;7.97;;;4.18;;
6598;SDS011;3335;43.198;27.918;2022-09-02T11:18:57;7.25;;;3.78;;
6598;SDS011;3335;43.198;27.918;2022-09-02T11:21:31;9.40;;;3.90;;
6598;SDS011;3335;43.198;27.918;2022-09-02T11:24:07;13.67;;;4.80;;
6598;SDS011;3335;43.198;27.918;2022-09-02T11:26:39;15.13;;;4.57;;
6598;SDS011;3335;43.198;27.918;2022-09-02T11:29:12;11.90;;;4.70;;
6598;SDS011;3335;43.198;27.918;2022-09-02T11:31:45;17.33;;;5.07;;
6598;SDS011;3335;43.198;27.918;2022-09-02T11:34:20;16.40;;;5.33;;
6598;SDS011;3335;43.198;27.918;2022-09-02T11:37:01;9.73;;;4.23;;
6598;SDS011;3335;43.198;27.918;2022-09-02T11:39:30;15.37;;;5.63;;
6598;SDS011;3335;43.198;27.918;2022-09-02T11:42:04;12.00;;;4.47;;
6598;SDS011;3335;43.198;27.918;2022-09-02T11:44:58;9.47;;;4.70;;
6598;SDS011;3335;43.198;27.918;2022-09-02T11:47:52;8.57;;;3.93;;
6598;SDS011;3335;43.198;27.918;2022-09-02T11:50:38;12.93;;;3.60;;
6598;SDS011;3335;43.198;27.918;2022-09-02T11:53:18;8.13;;;3.97;;
6598;SDS011;3335;43.198;27.918;2022-09-02T11:55:50;12.33;;;4.43;;
6598;SDS011;3335;43.198;27.918;2022-09-02T11:58:30;13.03;;;4.77;;
6598;SDS011;3335;43.198;27.918;2022-09-02T12:01:04;10.43;;;4.70;;
6598;SDS011;3335;43.198;27.918;2022-09-02T12:03:44;11.33;;;4.63;;
6598;SDS011;3335;43.198;27.918;2022-09-02T12:06:17;10.95;;;4.68;;
6598;SDS011;3335;43.198;27.918;2022-09-02T12:11:39;10.90;;;3.83;;
6598;SDS011;3335;43.198;27.918;2022-09-02T12:14:09;10.97;;;4.33;;
6598;SDS011;3335;43.198;27.918;2022-09-02T12:16:58;7.07;;;4.03;;
6598;SDS011;3335;43.198;27.918;2022-09-02T12:19:38;12.83;;;4.73;;
6598;SDS011;3335;43.198;27.918;2022-09-02T12:22:24;8.27;;;3.67;;
6598;SDS011;3335;43.198;27.918;2022-09-02T12:24:53;10.10;;;3.97;;
6598;SDS011;3335;43.198;27.918;2022-09-02T12:27:24;8.93;;;3.80;;
6598;SDS011;3335;43.198;27.918;2022-09-02T12:29:53;12.97;;;4.00;;
6598;SDS011;3335;43.198;27.918;2022-09-02T12:38:34;11.03;;;4.23;;
6598;SDS011;3335;43.198;27.918;2022-09-02T12:41:07;10.43;;;3.70;;
6598;SDS011;3335;43.198;27.918;2022-09-02T12:43:51;11.43;;;4.23;;
6598;SDS011;3335;43.198;27.918;2022-09-02T12:46:31;17.50;;;4.43;;
6598;SDS011;3335;43.198;27.918;2022-09-02T12:49:14;11.70;;;5.50;;
6598;SDS011;3335;43.198;27.918;2022-09-02T12:51:53;13.17;;;4.30;;
6598;SDS011;3335;43.198;27.918;2022-09-02T12:54:23;11.03;;;3.60;;
6598;SDS011;3335;43.198;27.918;2022-09-02T12:56:57;10.33;;;3.90;;
6598;SDS011;3335;43.198;27.918;2022-09-02T12:59:26;11.80;;;4.10;;
6598;SDS011;3335;43.198;27.918;2022-09-02T13:02:00;8.13;;;3.40;;
6598;SDS011;3335;43.198;27.918;2022-09-02T13:04:37;8.43;;;4.30;;
6598;SDS011;3335;43.198;27.918;2022-09-02T13:07:22;8.15;;;3.47;;
6598;SDS011;3335;43.198;27.918;2022-09-02T13:13:40;6.77;;;3.37;;
6598;SDS011;3335;43.198;27.918;2022-09-02T13:16:21;6.83;;;2.70;;
6598;SDS011;3335;43.198;27.918;2022-09-02T13:19:11;7.63;;;3.20;;
6598;SDS011;3335;43.198;27.918;2022-09-02T13:25:25;8.73;;;2.80;;
6598;SDS011;3335;43.198;27.918;2022-09-02T13:28:11;3.67;;;2.17;;
6598;SDS011;3335;43.198;27.918;2022-09-02T13:31:07;5.73;;;2.53;;
6598;SDS011;3335;43.198;27.918;2022-09-02T13:33:43;2.03;;;1.60;;
6598;SDS011;3335;43.198;27.918;2022-09-02T13:36:10;3.60;;;2.00;;
6598;SDS011;3335;43.198;27.918;2022-09-02T13:38:50;2.57;;;1.70;;
6598;SDS011;3335;43.198;27.918;2022-09-02T13:41:26;3.40;;;1.87;;
6598;SDS011;3335;43.198;27.918;2022-09-02T13:44:05;5.30;;;2.30;;
6598;SDS011;3335;43.198;27.918;2022-09-02T13:46:33;6.33;;;2.20;;
6598;SDS011;3335;43.198;27.918;2022-09-02T13:49:13;5.67;;;2.77;;
6598;SDS011;3335;43.198;27.918;2022-09-02T13:51:44;5.13;;;2.67;;
6598;SDS011;3335;43.198;27.918;2022-09-02T13:54:12;5.53;;;2.70;;
6598;SDS011;3335;43.198;27.918;2022-09-02T13:56:39;8.00;;;3.17;;
6598;SDS011;3335;43.198;27.918;2022-09-02T13:59:08;8.53;;;2.73;;
6598;SDS011;3335;43.198;27.918;2022-09-02T14:01:35;9.77;;;3.30;;
6598;SDS011;3335;43.198;27.918;2022-09-02T14:04:04;6.07;;;3.23;;
6598;SDS011;3335;43.198;27.918;2022-09-02T14:06:36;6.53;;;4.13;;
6598;SDS011;3335;43.198;27.918;2022-09-02T14:09:06;8.07;;;4.07;;
6598;SDS011;3335;43.198;27.918;2022-09-02T14:11:39;6.23;;;4.23;;
6598;SDS011;3335;43.198;27.918;2022-09-02T14:14:13;13.93;;;5.87;;
6598;SDS011;3335;43.198;27.918;2022-09-02T14:16:41;11.57;;;4.40;;
6598;SDS011;3335;43.198;27.918;2022-09-02T14:19:09;9.83;;;4.17;;
6598;SDS011;3335;43.198;27.918;2022-09-02T14:21:43;9.53;;;4.90;;
6598;SDS011;3335;43.198;27.918;2022-09-02T14:24:16;11.93;;;4.73;;
6598;SDS011;3335;43.198;27.918;2022-09-02T14:26:47;10.40;;;4.20;;
6598;SDS011;3335;43.198;27.918;2022-09-02T14:29:18;8.73;;;4.03;;
6598;SDS011;3335;43.198;27.918;2022-09-02T14:31:46;7.60;;;4.27;;
6598;SDS011;3335;43.198;27.918;2022-09-02T14:34:34;8.47;;;4.20;;
6598;SDS011;3335;43.198;27.918;2022-09-02T14:37:12;7.33;;;4.10;;
6598;SDS011;3335;43.198;27.918;2022-09-02T14:40:03;8.67;;;4.63;;
6598;SDS011;3335;43.198;27.918;2022-09-02T14:42:41;8.67;;;4.33;;
6598;SDS011;3335;43.198;27.918;2022-09-02T14:45:14;10.17;;;4.37;;
6598;SDS011;3335;43.198;27.918;2022-09-02T14:47:51;9.70;;;3.67;;
6598;SDS011;3335;43.198;27.918;2022-09-02T14:50:21;7.57;;;3.27;;
6598;SDS011;3335;43.198;27.918;2022-09-02T14:52:51;14.20;;;3.53;;
6598;SDS011;3335;43.198;27.918;2022-09-02T14:55:45;7.33;;;3.07;;
6598;SDS011;3335;43.198;27.918;2022-09-02T14:58:14;11.43;;;3.20;;
6598;SDS011;3335;43.198;27.918;2022-09-02T15:00:44;9.20;;;4.13;;
6598;SDS011;3335;43.198;27.918;2022-09-02T15:03:13;6.23;;;3.33;;
6598;SDS011;3335;43.198;27.918;2022-09-02T15:05:41;10.97;;;3.50;;
6598;SDS011;3335;43.198;27.918;2022-09-02T15:08:08;9.13;;;3.60;;
6598;SDS011;3335;43.198;27.918;2022-09-02T15:10:35;13.33;;;3.77;;
6598;SDS011;3335;43.198;27.918;2022-09-02T15:13:03;6.53;;;3.83;;
6598;SDS011;3335;43.198;27.918;2022-09-02T15:15:32;9.13;;;3.63;;
6598;SDS011;3335;43.198;27.918;2022-09-02T15:18:01;6.43;;;3.07;;
6598;SDS011;3335;43.198;27.918;2022-09-02T15:20:29;7.07;;;2.50;;
6598;SDS011;3335;43.198;27.918;2022-09-02T15:22:57;11.80;;;2.60;;
6598;SDS011;3335;43.198;27.918;2022-09-02T15:25:24;5.53;;;3.00;;
6598;SDS011;3335;43.198;27.918;2022-09-02T15:27:51;8.57;;;3.20;;
6598;SDS011;3335;43.198;27.918;2022-09-02T15:30:18;11.50;;;3.30;;
6598;SDS011;3335;43.198;27.918;2022-09-02T15:32:45;8.13;;;3.17;;
6598;SDS011;3335;43.198;27.918;2022-09-02T15:35:13;4.97;;;2.93;;
6598;SDS011;3335;43.198;27.918;2022-09-02T15:37:40;8.30;;;3.30;;
6598;SDS011;3335;43.198;27.918;2022-09-02T15:40:07;6.43;;;3.40;;
6598;SDS011;3335;43.198;27.918;2022-09-02T15:42:35;8.97;;;2.83;;